Arcadia, Florida
Current Conditions -  °F | °C
As of 8:53 PM on Friday 31 Oct 2014 (Local Time) from KPGD Reporting Station
Clear Clear  
Wind Chill: 67°   Ceiling: Unl
Heat Index: 67°   Visibility: 10mi
Dew Point: 53°   Wind: 8mph
Humidity: 61%   Direction: 320°NW
Pressure: 29.93"   Gusts: NA
Location:  27.22°N, 81.86°W
Report Text: KPGD 010053Z AUTO 32007KT 10SM CLR 19/12 A2993 RMK AO2 SLP134 T01940117
Loading
Personal Weather Stations






























Interactive Weather Map
Tropical Storm Tracking
New forecast layout! Learn more

10-Day Weather Forecast

Advertisements
Track Severe Weather on mobile